sensor_id;sensor_type;location;lat;lon;timestamp;P1;durP1;ratioP1;P2;durP2;ratioP2
17145;SDS011;8688;54.444;18.444;2023-07-24T00:02:16;11.55;;;6.97;;
17145;SDS011;8688;54.444;18.444;2023-07-24T00:04:45;11.48;;;6.85;;
17145;SDS011;8688;54.444;18.444;2023-07-24T00:07:12;11.00;;;6.80;;
17145;SDS011;8688;54.444;18.444;2023-07-24T00:09:40;10.93;;;6.75;;
17145;SDS011;8688;54.444;18.444;2023-07-24T00:12:08;10.52;;;6.60;;
17145;SDS011;8688;54.444;18.444;2023-07-24T00:14:35;10.43;;;6.65;;
17145;SDS011;8688;54.444;18.444;2023-07-24T00:17:03;13.20;;;7.05;;
17145;SDS011;8688;54.444;18.444;2023-07-24T00:19:31;10.05;;;6.95;;
17145;SDS011;8688;54.444;18.444;2023-07-24T00:22:00;12.20;;;6.70;;
17145;SDS011;8688;54.444;18.444;2023-07-24T00:24:29;11.13;;;7.05;;
17145;SDS011;8688;54.444;18.444;2023-07-24T00:26:58;9.52;;;6.93;;
17145;SDS011;8688;54.444;18.444;2023-07-24T00:29:25;14.40;;;7.50;;
17145;SDS011;8688;54.444;18.444;2023-07-24T00:31:53;13.45;;;7.70;;
17145;SDS011;8688;54.444;18.444;2023-07-24T00:34:20;13.27;;;7.40;;
17145;SDS011;8688;54.444;18.444;2023-07-24T00:36:48;12.95;;;7.95;;
17145;SDS011;8688;54.444;18.444;2023-07-24T00:39:17;11.30;;;7.07;;
17145;SDS011;8688;54.444;18.444;2023-07-24T00:41:45;15.80;;;6.93;;
17145;SDS011;8688;54.444;18.444;2023-07-24T00:44:12;10.95;;;7.35;;
17145;SDS011;8688;54.444;18.444;2023-07-24T00:46:40;9.13;;;6.50;;
17145;SDS011;8688;54.444;18.444;2023-07-24T00:49:08;10.88;;;6.53;;
17145;SDS011;8688;54.444;18.444;2023-07-24T00:51:35;11.95;;;6.55;;
17145;SDS011;8688;54.444;18.444;2023-07-24T00:54:03;11.70;;;6.85;;
17145;SDS011;8688;54.444;18.444;2023-07-24T00:56:34;11.68;;;7.43;;
17145;SDS011;8688;54.444;18.444;2023-07-24T00:59:01;9.52;;;7.07;;
17145;SDS011;8688;54.444;18.444;2023-07-24T01:01:29;10.23;;;6.55;;
17145;SDS011;8688;54.444;18.444;2023-07-24T01:03:57;12.82;;;7.50;;
17145;SDS011;8688;54.444;18.444;2023-07-24T01:06:25;12.93;;;7.40;;
17145;SDS011;8688;54.444;18.444;2023-07-24T01:08:53;13.30;;;7.15;;
17145;SDS011;8688;54.444;18.444;2023-07-24T01:11:21;10.95;;;7.18;;
17145;SDS011;8688;54.444;18.444;2023-07-24T01:13:57;10.00;;;6.35;;
17145;SDS011;8688;54.444;18.444;2023-07-24T01:16:31;15.45;;;6.95;;
17145;SDS011;8688;54.444;18.444;2023-07-24T01:19:02;12.27;;;7.07;;
17145;SDS011;8688;54.444;18.444;2023-07-24T01:21:38;10.68;;;6.93;;
17145;SDS011;8688;54.444;18.444;2023-07-24T01:24:14;11.95;;;6.88;;
17145;SDS011;8688;54.444;18.444;2023-07-24T01:26:52;9.05;;;6.65;;
17145;SDS011;8688;54.444;18.444;2023-07-24T01:29:20;8.82;;;6.55;;
17145;SDS011;8688;54.444;18.444;2023-07-24T01:31:47;11.10;;;6.38;;
17145;SDS011;8688;54.444;18.444;2023-07-24T01:34:15;11.00;;;6.95;;
17145;SDS011;8688;54.444;18.444;2023-07-24T01:36:42;10.80;;;6.50;;
17145;SDS011;8688;54.444;18.444;2023-07-24T01:39:10;9.18;;;6.18;;
17145;SDS011;8688;54.444;18.444;2023-07-24T01:41:38;10.13;;;6.35;;
17145;SDS011;8688;54.444;18.444;2023-07-24T01:44:07;10.57;;;6.68;;
17145;SDS011;8688;54.444;18.444;2023-07-24T01:46:35;12.02;;;6.60;;
17145;SDS011;8688;54.444;18.444;2023-07-24T01:49:02;11.00;;;6.68;;
17145;SDS011;8688;54.444;18.444;2023-07-24T01:51:30;12.02;;;7.50;;
17145;SDS011;8688;54.444;18.444;2023-07-24T01:53:58;10.75;;;6.85;;
17145;SDS011;8688;54.444;18.444;2023-07-24T01:56:26;8.77;;;5.75;;
17145;SDS011;8688;54.444;18.444;2023-07-24T01:58:53;11.55;;;7.18;;
17145;SDS011;8688;54.444;18.444;2023-07-24T02:01:22;10.05;;;6.38;;
17145;SDS011;8688;54.444;18.444;2023-07-24T02:03:50;11.02;;;6.15;;
17145;SDS011;8688;54.444;18.444;2023-07-24T02:06:18;10.73;;;6.50;;
17145;SDS011;8688;54.444;18.444;2023-07-24T02:08:46;13.10;;;7.38;;
17145;SDS011;8688;54.444;18.444;2023-07-24T02:11:16;9.45;;;6.78;;
17145;SDS011;8688;54.444;18.444;2023-07-24T02:13:44;9.40;;;6.25;;
17145;SDS011;8688;54.444;18.444;2023-07-24T02:16:12;11.35;;;7.05;;
17145;SDS011;8688;54.444;18.444;2023-07-24T02:18:42;11.60;;;6.90;;
17145;SDS011;8688;54.444;18.444;2023-07-24T02:21:10;13.40;;;6.88;;
17145;SDS011;8688;54.444;18.444;2023-07-24T02:23:37;11.00;;;7.10;;
17145;SDS011;8688;54.444;18.444;2023-07-24T02:26:05;10.73;;;6.72;;
17145;SDS011;8688;54.444;18.444;2023-07-24T02:28:32;11.07;;;6.70;;
17145;SDS011;8688;54.444;18.444;2023-07-24T02:31:00;14.50;;;7.15;;
17145;SDS011;8688;54.444;18.444;2023-07-24T02:33:28;11.45;;;6.95;;
17145;SDS011;8688;54.444;18.444;2023-07-24T02:35:57;11.13;;;6.57;;
17145;SDS011;8688;54.444;18.444;2023-07-24T02:38:24;10.27;;;6.93;;
17145;SDS011;8688;54.444;18.444;2023-07-24T02:40:52;13.52;;;6.75;;
17145;SDS011;8688;54.444;18.444;2023-07-24T02:43:20;9.55;;;6.53;;
17145;SDS011;8688;54.444;18.444;2023-07-24T02:45:47;11.77;;;7.53;;
17145;SDS011;8688;54.444;18.444;2023-07-24T02:48:15;10.27;;;7.03;;
17145;SDS011;8688;54.444;18.444;2023-07-24T02:50:42;11.10;;;6.68;;
17145;SDS011;8688;54.444;18.444;2023-07-24T02:53:11;9.05;;;6.82;;
17145;SDS011;8688;54.444;18.444;2023-07-24T02:55:41;13.10;;;6.82;;
17145;SDS011;8688;54.444;18.444;2023-07-24T02:58:10;12.98;;;7.30;;
17145;SDS011;8688;54.444;18.444;2023-07-24T03:00:38;9.70;;;6.97;;
17145;SDS011;8688;54.444;18.444;2023-07-24T03:03:06;10.57;;;6.63;;
17145;SDS011;8688;54.444;18.444;2023-07-24T03:05:34;10.75;;;6.65;;
17145;SDS011;8688;54.444;18.444;2023-07-24T03:08:02;8.80;;;6.85;;
17145;SDS011;8688;54.444;18.444;2023-07-24T03:10:31;15.57;;;7.35;;
17145;SDS011;8688;54.444;18.444;2023-07-24T03:12:58;10.98;;;7.30;;
17145;SDS011;8688;54.444;18.444;2023-07-24T03:15:26;10.15;;;7.22;;
17145;SDS011;8688;54.444;18.444;2023-07-24T03:17:54;9.60;;;7.35;;
17145;SDS011;8688;54.444;18.444;2023-07-24T03:20:21;10.63;;;7.47;;
17145;SDS011;8688;54.444;18.444;2023-07-24T03:22:49;14.30;;;8.13;;
17145;SDS011;8688;54.444;18.444;2023-07-24T03:25:17;10.13;;;7.47;;
17145;SDS011;8688;54.444;18.444;2023-07-24T03:27:46;9.90;;;7.38;;
17145;SDS011;8688;54.444;18.444;2023-07-24T03:30:14;11.93;;;7.82;;
17145;SDS011;8688;54.444;18.444;2023-07-24T03:32:41;11.45;;;7.13;;
17145;SDS011;8688;54.444;18.444;2023-07-24T03:35:09;12.18;;;7.78;;
17145;SDS011;8688;54.444;18.444;2023-07-24T03:37:36;12.48;;;7.97;;
17145;SDS011;8688;54.444;18.444;2023-07-24T03:40:04;11.63;;;7.47;;
17145;SDS011;8688;54.444;18.444;2023-07-24T03:42:33;11.50;;;7.28;;
17145;SDS011;8688;54.444;18.444;2023-07-24T03:45:02;10.55;;;7.32;;
17145;SDS011;8688;54.444;18.444;2023-07-24T03:47:30;13.20;;;7.30;;
17145;SDS011;8688;54.444;18.444;2023-07-24T03:49:57;11.63;;;7.35;;
17145;SDS011;8688;54.444;18.444;2023-07-24T03:52:25;9.70;;;7.15;;
17145;SDS011;8688;54.444;18.444;2023-07-24T03:54:53;10.32;;;6.47;;
17145;SDS011;8688;54.444;18.444;2023-07-24T03:57:20;12.32;;;7.57;;
17145;SDS011;8688;54.444;18.444;2023-07-24T03:59:47;11.60;;;7.10;;
17145;SDS011;8688;54.444;18.444;2023-07-24T04:02:16;10.18;;;7.18;;
17145;SDS011;8688;54.444;18.444;2023-07-24T04:04:45;13.68;;;7.40;;
17145;SDS011;8688;54.444;18.444;2023-07-24T04:07:12;11.30;;;6.70;;
17145;SDS011;8688;54.444;18.444;2023-07-24T04:09:40;10.65;;;7.32;;
17145;SDS011;8688;54.444;18.444;2023-07-24T04:12:07;10.93;;;6.97;;
17145;SDS011;8688;54.444;18.444;2023-07-24T04:14:35;11.25;;;7.65;;
17145;SDS011;8688;54.444;18.444;2023-07-24T04:17:03;10.82;;;7.32;;
17145;SDS011;8688;54.444;18.444;2023-07-24T04:19:32;9.90;;;6.60;;
17145;SDS011;8688;54.444;18.444;2023-07-24T04:22:00;10.98;;;7.25;;
17145;SDS011;8688;54.444;18.444;2023-07-24T04:24:27;9.02;;;6.38;;
17145;SDS011;8688;54.444;18.444;2023-07-24T04:26:55;9.43;;;6.72;;
17145;SDS011;8688;54.444;18.444;2023-07-24T04:29:22;10.32;;;6.75;;
17145;SDS011;8688;54.444;18.444;2023-07-24T04:31:51;9.45;;;7.43;;
17145;SDS011;8688;54.444;18.444;2023-07-24T04:34:19;9.70;;;6.80;;
17145;SDS011;8688;54.444;18.444;2023-07-24T04:36:48;11.70;;;6.60;;
17145;SDS011;8688;54.444;18.444;2023-07-24T04:39:16;10.30;;;6.50;;
17145;SDS011;8688;54.444;18.444;2023-07-24T04:41:43;12.65;;;6.40;;
17145;SDS011;8688;54.444;18.444;2023-07-24T04:44:11;10.27;;;6.90;;
17145;SDS011;8688;54.444;18.444;2023-07-24T04:46:38;9.45;;;6.35;;
17145;SDS011;8688;54.444;18.444;2023-07-24T04:49:06;12.43;;;7.28;;
17145;SDS011;8688;54.444;18.444;2023-07-24T04:51:33;8.98;;;6.50;;
17145;SDS011;8688;54.444;18.444;2023-07-24T04:54:03;9.15;;;6.10;;
17145;SDS011;8688;54.444;18.444;2023-07-24T04:56:30;9.93;;;6.05;;
17145;SDS011;8688;54.444;18.444;2023-07-24T04:58:58;8.55;;;6.13;;
17145;SDS011;8688;54.444;18.444;2023-07-24T05:01:25;10.18;;;6.40;;
17145;SDS011;8688;54.444;18.444;2023-07-24T05:03:53;8.43;;;5.93;;
17145;SDS011;8688;54.444;18.444;2023-07-24T05:06:20;10.60;;;6.50;;
17145;SDS011;8688;54.444;18.444;2023-07-24T05:08:48;8.32;;;5.65;;
17145;SDS011;8688;54.444;18.444;2023-07-24T05:11:18;8.55;;;6.07;;
17145;SDS011;8688;54.444;18.444;2023-07-24T05:13:45;7.63;;;5.43;;
17145;SDS011;8688;54.444;18.444;2023-07-24T05:16:13;10.38;;;5.65;;
17145;SDS011;8688;54.444;18.444;2023-07-24T05:18:40;7.70;;;5.57;;
17145;SDS011;8688;54.444;18.444;2023-07-24T05:21:08;8.98;;;5.90;;
17145;SDS011;8688;54.444;18.444;2023-07-24T05:23:35;10.90;;;5.68;;
17145;SDS011;8688;54.444;18.444;2023-07-24T05:26:03;7.65;;;5.88;;
17145;SDS011;8688;54.444;18.444;2023-07-24T05:28:33;8.05;;;5.70;;
17145;SDS011;8688;54.444;18.444;2023-07-24T05:31:01;8.57;;;6.20;;
17145;SDS011;8688;54.444;18.444;2023-07-24T05:33:29;13.27;;;5.68;;
17145;SDS011;8688;54.444;18.444;2023-07-24T05:35:58;6.53;;;5.45;;
17145;SDS011;8688;54.444;18.444;2023-07-24T05:38:26;8.43;;;4.97;;
17145;SDS011;8688;54.444;18.444;2023-07-24T05:40:54;6.15;;;5.00;;
17145;SDS011;8688;54.444;18.444;2023-07-24T05:43:22;7.82;;;5.40;;
17145;SDS011;8688;54.444;18.444;2023-07-24T05:45:51;7.25;;;5.70;;
17145;SDS011;8688;54.444;18.444;2023-07-24T05:48:19;8.15;;;5.53;;
17145;SDS011;8688;54.444;18.444;2023-07-24T05:50:47;8.80;;;5.45;;
17145;SDS011;8688;54.444;18.444;2023-07-24T05:53:15;7.13;;;4.90;;
17145;SDS011;8688;54.444;18.444;2023-07-24T05:55:42;6.00;;;4.60;;
17145;SDS011;8688;54.444;18.444;2023-07-24T05:58:10;6.72;;;4.63;;
17145;SDS011;8688;54.444;18.444;2023-07-24T06:00:38;8.75;;;5.00;;
17145;SDS011;8688;54.444;18.444;2023-07-24T06:03:07;6.10;;;4.80;;
17145;SDS011;8688;54.444;18.444;2023-07-24T06:05:35;8.52;;;4.60;;
17145;SDS011;8688;54.444;18.444;2023-07-24T06:08:03;7.07;;;4.43;;
17145;SDS011;8688;54.444;18.444;2023-07-24T06:10:30;5.30;;;4.28;;
17145;SDS011;8688;54.444;18.444;2023-07-24T06:12:58;6.07;;;4.15;;
17145;SDS011;8688;54.444;18.444;2023-07-24T06:15:26;7.45;;;4.40;;
17145;SDS011;8688;54.444;18.444;2023-07-24T06:17:53;5.82;;;3.83;;
17145;SDS011;8688;54.444;18.444;2023-07-24T06:20:22;8.50;;;4.38;;
17145;SDS011;8688;54.444;18.444;2023-07-24T06:22:50;5.85;;;3.90;;
17145;SDS011;8688;54.444;18.444;2023-07-24T06:25:17;5.88;;;4.10;;
17145;SDS011;8688;54.444;18.444;2023-07-24T06:27:45;5.90;;;4.00;;
17145;SDS011;8688;54.444;18.444;2023-07-24T06:30:12;7.00;;;4.10;;
17145;SDS011;8688;54.444;18.444;2023-07-24T06:32:40;6.95;;;4.18;;
17145;SDS011;8688;54.444;18.444;2023-07-24T06:35:07;6.25;;;4.25;;
17145;SDS011;8688;54.444;18.444;2023-07-24T06:37:37;6.18;;;4.20;;
17145;SDS011;8688;54.444;18.444;2023-07-24T06:40:05;6.70;;;3.95;;
17145;SDS011;8688;54.444;18.444;2023-07-24T06:42:34;9.15;;;4.20;;
17145;SDS011;8688;54.444;18.444;2023-07-24T06:45:02;5.90;;;3.95;;
17145;SDS011;8688;54.444;18.444;2023-07-24T06:47:31;6.38;;;4.07;;
17145;SDS011;8688;54.444;18.444;2023-07-24T06:49:59;6.03;;;3.90;;
17145;SDS011;8688;54.444;18.444;2023-07-24T06:52:27;10.52;;;4.53;;
17145;SDS011;8688;54.444;18.444;2023-07-24T06:54:56;6.05;;;3.95;;
17145;SDS011;8688;54.444;18.444;2023-07-24T06:57:24;7.68;;;4.10;;
17145;SDS011;8688;54.444;18.444;2023-07-24T06:59:52;5.80;;;3.92;;
17145;SDS011;8688;54.444;18.444;2023-07-24T07:02:20;7.32;;;3.83;;
17145;SDS011;8688;54.444;18.444;2023-07-24T07:04:47;6.88;;;4.40;;
17145;SDS011;8688;54.444;18.444;2023-07-24T07:07:15;6.72;;;4.20;;
17145;SDS011;8688;54.444;18.444;2023-07-24T07:09:43;5.18;;;3.95;;
17145;SDS011;8688;54.444;18.444;2023-07-24T07:12:12;6.50;;;4.15;;
17145;SDS011;8688;54.444;18.444;2023-07-24T07:14:40;9.32;;;4.20;;
17145;SDS011;8688;54.444;18.444;2023-07-24T07:17:07;5.07;;;3.50;;
17145;SDS011;8688;54.444;18.444;2023-07-24T07:19:35;7.05;;;4.05;;
17145;SDS011;8688;54.444;18.444;2023-07-24T07:22:03;7.60;;;3.92;;
17145;SDS011;8688;54.444;18.444;2023-07-24T07:24:31;5.45;;;3.60;;
17145;SDS011;8688;54.444;18.444;2023-07-24T07:26:59;8.73;;;4.10;;
17145;SDS011;8688;54.444;18.444;2023-07-24T07:29:28;5.63;;;3.88;;
17145;SDS011;8688;54.444;18.444;2023-07-24T07:31:56;6.72;;;4.03;;
17145;SDS011;8688;54.444;18.444;2023-07-24T07:34:24;5.80;;;3.88;;
17145;SDS011;8688;54.444;18.444;2023-07-24T07:36:51;7.70;;;3.67;;
17145;SDS011;8688;54.444;18.444;2023-07-24T07:39:19;5.30;;;3.80;;
17145;SDS011;8688;54.444;18.444;2023-07-24T07:41:47;5.70;;;3.70;;
17145;SDS011;8688;54.444;18.444;2023-07-24T07:44:14;4.55;;;3.50;;
17145;SDS011;8688;54.444;18.444;2023-07-24T07:46:43;4.97;;;3.63;;
17145;SDS011;8688;54.444;18.444;2023-07-24T07:49:10;6.57;;;3.55;;
17145;SDS011;8688;54.444;18.444;2023-07-24T07:51:38;5.00;;;3.42;;
17145;SDS011;8688;54.444;18.444;2023-07-24T07:54:06;8.13;;;3.60;;
17145;SDS011;8688;54.444;18.444;2023-07-24T07:56:33;5.72;;;3.13;;
17145;SDS011;8688;54.444;18.444;2023-07-24T07:59:01;4.28;;;3.17;;
17145;SDS011;8688;54.444;18.444;2023-07-24T08:01:29;5.03;;;3.10;;
17145;SDS011;8688;54.444;18.444;2023-07-24T08:03:59;4.38;;;3.50;;
17145;SDS011;8688;54.444;18.444;2023-07-24T08:06:27;4.15;;;3.10;;
17145;SDS011;8688;54.444;18.444;2023-07-24T08:08:54;5.50;;;3.10;;
17145;SDS011;8688;54.444;18.444;2023-07-24T08:11:23;5.82;;;3.65;;
17145;SDS011;8688;54.444;18.444;2023-07-24T08:13:51;8.65;;;3.55;;
17145;SDS011;8688;54.444;18.444;2023-07-24T08:16:19;4.57;;;3.33;;
17145;SDS011;8688;54.444;18.444;2023-07-24T08:18:46;4.47;;;3.30;;
17145;SDS011;8688;54.444;18.444;2023-07-24T08:21:16;7.60;;;3.50;;
17145;SDS011;8688;54.444;18.444;2023-07-24T08:23:44;7.07;;;4.07;;
17145;SDS011;8688;54.444;18.444;2023-07-24T08:26:11;6.07;;;3.50;;
17145;SDS011;8688;54.444;18.444;2023-07-24T08:28:39;4.18;;;3.22;;
17145;SDS011;8688;54.444;18.444;2023-07-24T08:31:08;5.55;;;3.55;;
17145;SDS011;8688;54.444;18.444;2023-07-24T08:33:36;5.28;;;3.47;;
17145;SDS011;8688;54.444;18.444;2023-07-24T08:36:05;5.05;;;3.42;;
17145;SDS011;8688;54.444;18.444;2023-07-24T08:38:35;5.18;;;3.47;;
17145;SDS011;8688;54.444;18.444;2023-07-24T08:41:04;5.32;;;3.40;;
17145;SDS011;8688;54.444;18.444;2023-07-24T08:43:33;4.53;;;3.38;;
17145;SDS011;8688;54.444;18.444;2023-07-24T08:46:02;4.78;;;3.50;;
17145;SDS011;8688;54.444;18.444;2023-07-24T08:48:32;4.32;;;3.40;;
17145;SDS011;8688;54.444;18.444;2023-07-24T08:51:01;4.78;;;3.22;;
17145;SDS011;8688;54.444;18.444;2023-07-24T08:53:29;5.47;;;3.20;;
17145;SDS011;8688;54.444;18.444;2023-07-24T08:56:02;4.63;;;3.30;;
17145;SDS011;8688;54.444;18.444;2023-07-24T08:58:30;4.85;;;3.25;;
17145;SDS011;8688;54.444;18.444;2023-07-24T09:00:58;6.97;;;3.65;;
17145;SDS011;8688;54.444;18.444;2023-07-24T09:03:27;5.97;;;3.45;;
17145;SDS011;8688;54.444;18.444;2023-07-24T09:05:56;4.82;;;3.40;;
17145;SDS011;8688;54.444;18.444;2023-07-24T09:08:29;5.10;;;3.30;;
17145;SDS011;8688;54.444;18.444;2023-07-24T09:10:58;3.85;;;3.30;;
17145;SDS011;8688;54.444;18.444;2023-07-24T09:13:27;6.38;;;3.40;;
17145;SDS011;8688;54.444;18.444;2023-07-24T09:15:55;3.90;;;2.97;;
17145;SDS011;8688;54.444;18.444;2023-07-24T09:18:24;5.68;;;2.58;;
17145;SDS011;8688;54.444;18.444;2023-07-24T09:20:52;6.45;;;3.05;;
17145;SDS011;8688;54.444;18.444;2023-07-24T09:23:25;6.90;;;2.92;;
17145;SDS011;8688;54.444;18.444;2023-07-24T09:25:54;3.10;;;2.70;;
17145;SDS011;8688;54.444;18.444;2023-07-24T09:28:22;5.75;;;2.88;;
17145;SDS011;8688;54.444;18.444;2023-07-24T09:30:52;5.95;;;3.10;;
17145;SDS011;8688;54.444;18.444;2023-07-24T09:33:21;2.92;;;2.53;;
17145;SDS011;8688;54.444;18.444;2023-07-24T09:35:58;5.22;;;2.70;;
17145;SDS011;8688;54.444;18.444;2023-07-24T09:38:26;6.30;;;2.85;;
17145;SDS011;8688;54.444;18.444;2023-07-24T09:40:55;5.28;;;2.80;;
17145;SDS011;8688;54.444;18.444;2023-07-24T09:43:24;6.18;;;2.70;;
17145;SDS011;8688;54.444;18.444;2023-07-24T09:45:54;4.00;;;2.65;;
17145;SDS011;8688;54.444;18.444;2023-07-24T09:48:23;3.20;;;2.78;;
17145;SDS011;8688;54.444;18.444;2023-07-24T09:50:54;4.72;;;2.90;;
17145;SDS011;8688;54.444;18.444;2023-07-24T09:53:24;4.65;;;3.00;;
17145;SDS011;8688;54.444;18.444;2023-07-24T09:56:00;3.45;;;2.80;;
17145;SDS011;8688;54.444;18.444;2023-07-24T09:58:32;5.82;;;3.33;;
17145;SDS011;8688;54.444;18.444;2023-07-24T10:01:03;5.93;;;3.15;;
17145;SDS011;8688;54.444;18.444;2023-07-24T10:03:32;4.30;;;2.78;;
17145;SDS011;8688;54.444;18.444;2023-07-24T10:06:01;4.55;;;3.30;;
17145;SDS011;8688;54.444;18.444;2023-07-24T10:08:29;5.40;;;3.50;;
17145;SDS011;8688;54.444;18.444;2023-07-24T10:10:58;5.70;;;3.47;;
17145;SDS011;8688;54.444;18.444;2023-07-24T10:13:26;4.82;;;3.50;;
17145;SDS011;8688;54.444;18.444;2023-07-24T10:15:55;3.50;;;2.92;;
17145;SDS011;8688;54.444;18.444;2023-07-24T10:18:27;5.97;;;3.33;;
17145;SDS011;8688;54.444;18.444;2023-07-24T10:21:05;5.07;;;3.10;;
17145;SDS011;8688;54.444;18.444;2023-07-24T10:23:33;5.32;;;3.20;;
17145;SDS011;8688;54.444;18.444;2023-07-24T10:26:02;4.57;;;3.25;;
17145;SDS011;8688;54.444;18.444;2023-07-24T10:28:31;4.50;;;3.47;;
17145;SDS011;8688;54.444;18.444;2023-07-24T10:31:03;4.07;;;3.45;;
17145;SDS011;8688;54.444;18.444;2023-07-24T10:33:36;6.03;;;3.40;;
17145;SDS011;8688;54.444;18.444;2023-07-24T10:36:12;3.55;;;2.80;;
17145;SDS011;8688;54.444;18.444;2023-07-24T10:38:44;5.10;;;2.92;;
17145;SDS011;8688;54.444;18.444;2023-07-24T10:41:13;7.22;;;3.28;;
17145;SDS011;8688;54.444;18.444;2023-07-24T10:43:41;4.20;;;2.85;;
17145;SDS011;8688;54.444;18.444;2023-07-24T10:46:10;4.18;;;3.00;;
17145;SDS011;8688;54.444;18.444;2023-07-24T10:48:41;5.45;;;3.28;;
17145;SDS011;8688;54.444;18.444;2023-07-24T10:51:10;4.90;;;3.35;;
17145;SDS011;8688;54.444;18.444;2023-07-24T10:53:41;5.00;;;2.88;;
17145;SDS011;8688;54.444;18.444;2023-07-24T10:56:11;4.65;;;2.90;;
17145;SDS011;8688;54.444;18.444;2023-07-24T10:58:39;5.03;;;2.90;;
17145;SDS011;8688;54.444;18.444;2023-07-24T11:01:07;4.82;;;2.97;;
17145;SDS011;8688;54.444;18.444;2023-07-24T11:03:36;3.92;;;2.80;;
17145;SDS011;8688;54.444;18.444;2023-07-24T11:06:10;6.35;;;2.90;;
17145;SDS011;8688;54.444;18.444;2023-07-24T11:08:40;3.92;;;2.70;;
17145;SDS011;8688;54.444;18.444;2023-07-24T11:11:08;6.03;;;3.00;;
17145;SDS011;8688;54.444;18.444;2023-07-24T11:13:37;4.07;;;3.10;;
17145;SDS011;8688;54.444;18.444;2023-07-24T11:16:06;4.00;;;3.00;;
17145;SDS011;8688;54.444;18.444;2023-07-24T11:18:43;3.88;;;2.90;;
17145;SDS011;8688;54.444;18.444;2023-07-24T11:21:14;4.80;;;3.20;;
17145;SDS011;8688;54.444;18.444;2023-07-24T11:23:46;4.80;;;2.90;;
17145;SDS011;8688;54.444;18.444;2023-07-24T11:26:15;4.13;;;2.95;;
17145;SDS011;8688;54.444;18.444;2023-07-24T11:28:45;4.60;;;3.00;;
17145;SDS011;8688;54.444;18.444;2023-07-24T11:31:12;3.67;;;3.00;;
17145;SDS011;8688;54.444;18.444;2023-07-24T11:33:40;4.30;;;3.08;;
17145;SDS011;8688;54.444;18.444;2023-07-24T11:36:09;6.32;;;2.78;;
17145;SDS011;8688;54.444;18.444;2023-07-24T11:38:39;4.78;;;3.03;;
17145;SDS011;8688;54.444;18.444;2023-07-24T11:41:08;5.82;;;3.05;;
17145;SDS011;8688;54.444;18.444;2023-07-24T11:43:44;3.80;;;2.50;;
17145;SDS011;8688;54.444;18.444;2023-07-24T11:46:21;4.35;;;2.90;;
17145;SDS011;8688;54.444;18.444;2023-07-24T11:48:50;7.70;;;3.10;;
17145;SDS011;8688;54.444;18.444;2023-07-24T11:51:21;4.35;;;3.00;;
17145;SDS011;8688;54.444;18.444;2023-07-24T11:53:51;7.38;;;2.70;;
17145;SDS011;8688;54.444;18.444;2023-07-24T11:56:19;4.60;;;2.88;;
17145;SDS011;8688;54.444;18.444;2023-07-24T11:58:48;7.30;;;2.80;;
17145;SDS011;8688;54.444;18.444;2023-07-24T12:01:16;9.88;;;3.30;;
17145;SDS011;8688;54.444;18.444;2023-07-24T12:03:44;3.42;;;2.90;;
17145;SDS011;8688;54.444;18.444;2023-07-24T12:06:16;8.75;;;3.33;;
17145;SDS011;8688;54.444;18.444;2023-07-24T12:08:45;4.38;;;2.78;;
17145;SDS011;8688;54.444;18.444;2023-07-24T12:11:17;7.47;;;3.22;;
17145;SDS011;8688;54.444;18.444;2023-07-24T12:13:45;4.25;;;2.70;;
17145;SDS011;8688;54.444;18.444;2023-07-24T12:16:12;5.30;;;3.45;;
17145;SDS011;8688;54.444;18.444;2023-07-24T12:18:40;5.95;;;2.95;;
17145;SDS011;8688;54.444;18.444;2023-07-24T12:21:08;7.18;;;3.38;;
17145;SDS011;8688;54.444;18.444;2023-07-24T12:23:35;4.95;;;2.90;;
17145;SDS011;8688;54.444;18.444;2023-07-24T12:26:04;7.68;;;3.20;;
17145;SDS011;8688;54.444;18.444;2023-07-24T12:28:34;3.88;;;2.90;;
17145;SDS011;8688;54.444;18.444;2023-07-24T12:31:01;3.97;;;2.90;;
17145;SDS011;8688;54.444;18.444;2023-07-24T12:33:29;5.93;;;2.92;;
17145;SDS011;8688;54.444;18.444;2023-07-24T12:35:57;6.90;;;3.08;;
17145;SDS011;8688;54.444;18.444;2023-07-24T12:38:25;4.03;;;3.13;;
17145;SDS011;8688;54.444;18.444;2023-07-24T12:40:52;4.15;;;2.95;;
17145;SDS011;8688;54.444;18.444;2023-07-24T12:43:20;4.93;;;2.90;;
17145;SDS011;8688;54.444;18.444;2023-07-24T12:45:49;3.15;;;2.75;;
17145;SDS011;8688;54.444;18.444;2023-07-24T12:48:17;3.63;;;2.90;;
17145;SDS011;8688;54.444;18.444;2023-07-24T12:50:44;7.18;;;3.08;;
17145;SDS011;8688;54.444;18.444;2023-07-24T12:53:12;5.00;;;3.25;;
17145;SDS011;8688;54.444;18.444;2023-07-24T12:55:40;7.35;;;2.72;;
17145;SDS011;8688;54.444;18.444;2023-07-24T12:58:07;5.47;;;2.80;;
17145;SDS011;8688;54.444;18.444;2023-07-24T13:00:35;4.53;;;2.55;;
17145;SDS011;8688;54.444;18.444;2023-07-24T13:03:04;4.25;;;2.80;;
17145;SDS011;8688;54.444;18.444;2023-07-24T13:05:32;2.95;;;2.53;;
17145;SDS011;8688;54.444;18.444;2023-07-24T13:08:00;7.00;;;2.80;;
17145;SDS011;8688;54.444;18.444;2023-07-24T13:10:27;7.55;;;3.05;;
17145;SDS011;8688;54.444;18.444;2023-07-24T13:12:55;7.13;;;2.60;;
17145;SDS011;8688;54.444;18.444;2023-07-24T13:15:23;3.25;;;2.67;;
17145;SDS011;8688;54.444;18.444;2023-07-24T13:17:51;3.45;;;2.72;;
17145;SDS011;8688;54.444;18.444;2023-07-24T13:20:20;3.25;;;2.70;;
17145;SDS011;8688;54.444;18.444;2023-07-24T13:22:48;3.20;;;2.35;;
17145;SDS011;8688;54.444;18.444;2023-07-24T13:25:15;4.72;;;2.50;;
17145;SDS011;8688;54.444;18.444;2023-07-24T13:27:43;3.40;;;2.63;;
17145;SDS011;8688;54.444;18.444;2023-07-24T13:30:11;4.85;;;2.50;;
17145;SDS011;8688;54.444;18.444;2023-07-24T13:32:39;4.03;;;2.60;;
17145;SDS011;8688;54.444;18.444;2023-07-24T13:35:08;2.58;;;2.15;;
17145;SDS011;8688;54.444;18.444;2023-07-24T13:37:37;3.47;;;2.28;;
17145;SDS011;8688;54.444;18.444;2023-07-24T13:40:06;2.63;;;2.05;;
17145;SDS011;8688;54.444;18.444;2023-07-24T13:42:34;4.07;;;2.70;;
17145;SDS011;8688;54.444;18.444;2023-07-24T13:45:02;4.10;;;2.40;;
17145;SDS011;8688;54.444;18.444;2023-07-24T13:47:31;4.07;;;2.50;;
17145;SDS011;8688;54.444;18.444;2023-07-24T13:49:58;4.15;;;2.10;;
17145;SDS011;8688;54.444;18.444;2023-07-24T13:52:28;4.25;;;2.47;;
17145;SDS011;8688;54.444;18.444;2023-07-24T13:54:58;4.30;;;2.58;;
17145;SDS011;8688;54.444;18.444;2023-07-24T13:57:25;3.15;;;2.28;;
17145;SDS011;8688;54.444;18.444;2023-07-24T13:59:54;5.68;;;2.03;;
17145;SDS011;8688;54.444;18.444;2023-07-24T14:02:22;4.70;;;2.50;;
17145;SDS011;8688;54.444;18.444;2023-07-24T14:04:50;2.92;;;1.98;;
17145;SDS011;8688;54.444;18.444;2023-07-24T14:07:19;2.85;;;2.22;;
17145;SDS011;8688;54.444;18.444;2023-07-24T14:09:48;6.15;;;2.30;;
17145;SDS011;8688;54.444;18.444;2023-07-24T14:12:17;3.65;;;2.10;;
17145;SDS011;8688;54.444;18.444;2023-07-24T14:14:44;3.15;;;2.17;;
17145;SDS011;8688;54.444;18.444;2023-07-24T14:17:12;4.72;;;2.15;;
17145;SDS011;8688;54.444;18.444;2023-07-24T14:19:40;3.80;;;2.10;;
17145;SDS011;8688;54.444;18.444;2023-07-24T14:22:08;2.83;;;2.00;;
17145;SDS011;8688;54.444;18.444;2023-07-24T14:24:36;2.75;;;2.05;;
17145;SDS011;8688;54.444;18.444;2023-07-24T14:27:05;4.18;;;2.10;;
17145;SDS011;8688;54.444;18.444;2023-07-24T14:29:36;6.57;;;2.13;;
17145;SDS011;8688;54.444;18.444;2023-07-24T14:32:04;3.70;;;2.00;;
17145;SDS011;8688;54.444;18.444;2023-07-24T14:34:33;4.13;;;2.20;;
17145;SDS011;8688;54.444;18.444;2023-07-24T14:37:02;2.38;;;2.03;;
17145;SDS011;8688;54.444;18.444;2023-07-24T14:39:31;5.07;;;1.90;;
17145;SDS011;8688;54.444;18.444;2023-07-24T14:42:00;3.95;;;1.80;;
17145;SDS011;8688;54.444;18.444;2023-07-24T14:44:28;4.50;;;1.92;;
17145;SDS011;8688;54.444;18.444;2023-07-24T14:46:58;1.67;;;1.48;;
17145;SDS011;8688;54.444;18.444;2023-07-24T14:49:27;4.00;;;1.83;;
17145;SDS011;8688;54.444;18.444;2023-07-24T14:51:56;5.13;;;2.13;;